createdAt,value
2019-06-08T00:00:12.995Z,18.92
2019-06-08T00:02:41.253Z,18.91
2019-06-08T00:05:10.008Z,18.94
2019-06-08T00:07:38.919Z,18.92
2019-06-08T00:10:08.369Z,18.91
2019-06-08T00:12:36.956Z,18.87
2019-06-08T00:15:07.188Z,18.87
2019-06-08T00:17:38.936Z,18.87
2019-06-08T00:20:08.669Z,18.88
2019-06-08T00:22:37.518Z,18.86
2019-06-08T00:25:06.784Z,18.82
2019-06-08T00:27:35.435Z,18.79
2019-06-08T00:30:06.199Z,18.77
2019-06-08T00:32:34.897Z,18.75
2019-06-08T00:35:04.251Z,18.72
2019-06-08T00:37:32.912Z,18.69
2019-06-08T00:40:01.594Z,18.70
2019-06-08T00:42:30.225Z,18.70
2019-06-08T00:44:58.897Z,18.73
2019-06-08T00:47:42.493Z,18.70
2019-06-08T00:49:57.987Z,18.61
2019-06-08T00:52:26.637Z,18.67
2019-06-08T00:54:55.298Z,18.60
2019-06-08T00:57:24.062Z,18.61
2019-06-08T00:59:52.811Z,18.57
2019-06-08T01:02:22.581Z,18.57
2019-06-08T01:04:51.328Z,18.52
2019-06-08T01:07:20.007Z,18.56
2019-06-08T01:09:48.649Z,18.51
2019-06-08T01:12:18.625Z,18.47
2019-06-08T01:14:47.538Z,18.51
2019-06-08T01:17:16.198Z,18.49
2019-06-08T01:19:44.852Z,18.45
2019-06-08T01:22:13.515Z,18.45
2019-06-08T01:24:42.472Z,18.41
2019-06-08T01:27:11.361Z,18.41
2019-06-08T01:29:39.936Z,18.39
2019-06-08T01:32:08.591Z,18.34
2019-06-08T01:34:37.272Z,18.29
2019-06-08T01:37:05.870Z,18.28
2019-06-08T01:39:34.532Z,18.25
2019-06-08T01:42:03.187Z,18.24
2019-06-08T01:44:32.089Z,18.21
2019-06-08T01:47:00.793Z,18.19
2019-06-08T01:49:30.592Z,18.16
2019-06-08T01:51:59.330Z,18.12
2019-06-08T01:54:29.710Z,18.09
2019-06-08T01:56:58.409Z,18.07
2019-06-08T01:59:27.438Z,18.03
2019-06-08T02:01:56.057Z,17.99
2019-06-08T02:04:25.931Z,17.97
2019-06-08T02:06:54.685Z,17.95
2019-06-08T02:09:24.524Z,17.92
2019-06-08T02:11:53.323Z,17.94
2019-06-08T02:14:22.019Z,17.88
2019-06-08T02:16:50.763Z,17.82
2019-06-08T02:19:19.432Z,17.82
2019-06-08T02:21:48.093Z,17.85
2019-06-08T02:24:16.795Z,17.81
2019-06-08T02:26:45.459Z,17.73
2019-06-08T02:29:14.139Z,17.73
2019-06-08T02:31:42.783Z,17.66
2019-06-08T02:34:11.433Z,17.57
2019-06-08T02:36:40.816Z,17.58
2019-06-08T02:39:09.662Z,17.52
2019-06-08T02:41:39.949Z,17.51
2019-06-08T02:44:08.746Z,17.39
2019-06-08T02:46:40.087Z,17.48
2019-06-08T02:49:08.521Z,17.47
2019-06-08T02:51:38.253Z,17.47
2019-06-08T02:54:07.186Z,17.49
2019-06-08T02:56:37.345Z,17.51
2019-06-08T02:59:07.125Z,17.41
2019-06-08T03:01:38.148Z,17.51
2019-06-08T03:04:06.593Z,17.50
2019-06-08T03:06:39.462Z,17.49
2019-06-08T03:09:08.691Z,17.56
2019-06-08T03:11:39.004Z,17.54
2019-06-08T03:14:08.147Z,17.57
2019-06-08T03:16:40.389Z,17.58
2019-06-08T03:19:20.916Z,17.63
2019-06-08T03:21:38.856Z,17.66
2019-06-08T03:24:07.859Z,17.68
2019-06-08T03:26:39.050Z,17.72
2019-06-08T03:29:06.891Z,17.75
2019-06-08T03:31:42.429Z,17.80
2019-06-08T03:34:05.893Z,17.76
2019-06-08T03:36:39.012Z,17.76
2019-06-08T03:39:07.256Z,17.77
2019-06-08T03:41:36.265Z,17.70
2019-06-08T03:44:06.312Z,17.75
2019-06-08T03:46:36.386Z,17.72
2019-06-08T03:49:05.166Z,17.76
2019-06-08T03:51:36.054Z,17.78
2019-06-08T03:54:04.156Z,17.86
2019-06-08T03:56:32.837Z,17.89
2019-06-08T03:59:01.583Z,17.92
2019-06-08T04:01:30.293Z,17.95
2019-06-08T04:04:00.126Z,18.08
2019-06-08T04:06:28.835Z,18.15
2019-06-08T04:08:57.505Z,18.22
2019-06-08T04:11:26.090Z,18.36
2019-06-08T04:13:54.785Z,18.43
2019-06-08T04:16:23.450Z,18.55
2019-06-08T04:18:52.104Z,18.62
2019-06-08T04:21:20.697Z,18.76
2019-06-08T04:23:50.674Z,18.76
2019-06-08T04:26:19.676Z,18.72
2019-06-08T04:28:49.628Z,18.89
2019-06-08T04:31:18.304Z,18.99
2019-06-08T04:33:47.062Z,19.08
2019-06-08T04:36:15.717Z,19.18
2019-06-08T04:38:45.716Z,19.28
2019-06-08T04:41:14.730Z,19.37
2019-06-08T04:43:44.960Z,19.46
2019-06-08T04:46:13.769Z,19.57
2019-06-08T04:48:43.134Z,19.72
2019-06-08T04:51:12.833Z,19.75
2019-06-08T04:53:43.086Z,19.89
2019-06-08T04:56:11.919Z,19.97
2019-06-08T04:58:42.185Z,20.07
2019-06-08T05:01:10.951Z,20.18
2019-06-08T05:03:41.222Z,20.32
2019-06-08T05:06:09.859Z,20.44
2019-06-08T05:08:39.033Z,20.55
2019-06-08T05:11:07.870Z,20.71
2019-06-08T05:13:36.586Z,20.85
2019-06-08T05:16:05.241Z,20.97
2019-06-08T05:18:33.823Z,21.10
2019-06-08T05:21:02.416Z,21.21
2019-06-08T05:23:31.074Z,21.37
2019-06-08T05:25:59.748Z,21.48
2019-06-08T05:28:28.420Z,21.60
2019-06-08T05:30:57.229Z,21.63
2019-06-08T05:33:25.896Z,21.72
2019-06-08T05:35:54.553Z,21.64
2019-06-08T05:38:23.227Z,21.81
2019-06-08T05:40:51.878Z,21.82
2019-06-08T05:43:20.490Z,22.02
2019-06-08T05:45:49.980Z,22.12
2019-06-08T05:48:19.247Z,22.35
2019-06-08T05:51:02.693Z,22.49
2019-06-08T05:53:18.232Z,22.72
2019-06-08T05:55:47.993Z,22.89
2019-06-08T05:58:16.741Z,22.92
2019-06-08T06:00:46.275Z,23.19
2019-06-08T06:03:15.037Z,23.46
2019-06-08T06:05:44.346Z,23.72
2019-06-08T06:08:18.884Z,23.90
2019-06-08T06:10:44.772Z,24.10
2019-06-08T06:13:13.635Z,24.16
2019-06-08T06:15:42.970Z,24.25
2019-06-08T06:18:11.662Z,24.37
2019-06-08T06:20:41.006Z,24.59
2019-06-08T06:23:09.849Z,24.82
2019-06-08T06:25:38.502Z,25.01
2019-06-08T06:28:07.217Z,25.26
2019-06-08T06:30:35.959Z,25.43
2019-06-08T06:33:04.620Z,25.67
2019-06-08T06:35:33.281Z,26.01
2019-06-08T06:38:01.928Z,26.16
2019-06-08T06:40:30.702Z,26.33
2019-06-08T06:42:59.352Z,26.57
2019-06-08T06:45:28.022Z,26.67
2019-06-08T06:47:56.733Z,26.85
2019-06-08T06:50:25.417Z,26.86
2019-06-08T06:52:54.071Z,27.14
2019-06-08T06:55:25.368Z,27.30
2019-06-08T06:57:53.615Z,27.48
2019-06-08T07:00:32.551Z,27.78
2019-06-08T07:03:02.274Z,27.95
2019-06-08T07:05:30.930Z,28.01
2019-06-08T07:07:59.579Z,28.09
2019-06-08T07:10:28.175Z,28.10
2019-06-08T07:12:56.830Z,28.03
2019-06-08T07:15:29.522Z,28.26
2019-06-08T07:17:58.714Z,28.36
2019-06-08T07:20:27.437Z,28.71
2019-06-08T07:22:56.084Z,29.20
2019-06-08T07:25:24.759Z,29.73
2019-06-08T07:27:54.958Z,30.13
2019-06-08T07:30:23.894Z,30.56
2019-06-08T07:32:53.037Z,31.07
2019-06-08T07:35:21.692Z,31.26
2019-06-08T07:37:51.876Z,31.63
2019-06-08T07:40:20.644Z,31.89
2019-06-08T07:42:50.807Z,32.14
2019-06-08T07:45:19.681Z,32.55
2019-06-08T07:47:48.375Z,33.04
2019-06-08T07:50:17.260Z,33.55
2019-06-08T07:52:45.935Z,34.16
2019-06-08T07:55:14.618Z,35.06
2019-06-08T07:57:43.278Z,36.48
2019-06-08T08:00:12.185Z,37.61
2019-06-08T08:02:40.849Z,39.06
2019-06-08T08:05:09.805Z,40.46
2019-06-08T08:07:38.474Z,41.63
2019-06-08T08:10:07.907Z,43.47
2019-06-08T08:12:36.569Z,44.88
2019-06-08T08:15:08.458Z,46.78
2019-06-08T08:17:37.247Z,47.98
2019-06-08T08:20:07.503Z,48.99
2019-06-08T08:22:38.172Z,49.21
2019-06-08T08:25:08.290Z,49.69
2019-06-08T08:27:37.621Z,50.07
2019-06-08T08:30:08.417Z,51.20
2019-06-08T08:32:37.996Z,51.71
2019-06-08T08:35:08.741Z,52.90
2019-06-08T08:37:38.111Z,52.90
2019-06-08T08:40:07.878Z,53.14
2019-06-08T08:42:38.709Z,53.99
2019-06-08T08:45:08.780Z,53.71
2019-06-08T08:47:38.819Z,52.68
2019-06-08T08:50:10.351Z,54.24
2019-06-08T08:52:40.944Z,53.25
2019-06-08T08:55:09.722Z,54.58
2019-06-08T08:57:41.509Z,54.55
2019-06-08T09:00:09.630Z,55.12
2019-06-08T09:02:38.309Z,55.34
2019-06-08T09:05:08.587Z,55.95
2019-06-08T09:07:38.564Z,56.13
2019-06-08T09:10:08.526Z,55.45
2019-06-08T09:12:38.013Z,56.35
2019-06-08T09:15:08.652Z,56.82
2019-06-08T09:17:38.834Z,55.36
2019-06-08T09:20:09.379Z,56.75
2019-06-08T09:22:52.951Z,56.53
2019-06-08T09:25:09.035Z,56.94
2019-06-08T09:27:38.231Z,57.62
2019-06-08T09:30:08.423Z,57.81
2019-06-08T09:32:38.188Z,56.96
2019-06-08T09:35:09.384Z,55.13
2019-06-08T09:37:37.731Z,55.23
2019-06-08T09:40:07.532Z,56.71
2019-06-08T09:42:36.786Z,56.21
2019-06-08T09:45:09.484Z,55.98
2019-06-08T09:47:38.280Z,55.83
2019-06-08T09:50:11.690Z,57.35
2019-06-08T09:52:41.369Z,56.51
2019-06-08T09:55:11.004Z,54.00
2019-06-08T09:57:39.754Z,53.83
2019-06-08T10:00:17.935Z,54.46
2019-06-08T10:02:39.328Z,56.40
2019-06-08T10:05:08.225Z,57.35
2019-06-08T10:07:38.846Z,59.71
2019-06-08T10:10:09.805Z,59.71
2019-06-08T10:12:41.067Z,61.31
2019-06-08T10:15:09.485Z,60.43
2019-06-08T10:17:38.183Z,60.76
2019-06-08T10:20:09.805Z,61.05
2019-06-08T10:22:37.729Z,61.52
2019-06-08T10:25:11.284Z,61.83
2019-06-08T10:27:40.313Z,60.72
2019-06-08T10:30:10.443Z,59.29
2019-06-08T10:32:39.454Z,59.87
2019-06-08T10:35:10.605Z,60.11
2019-06-08T10:37:39.432Z,60.05
2019-06-08T10:40:10.115Z,59.36
2019-06-08T10:42:40.208Z,58.53
2019-06-08T10:45:14.672Z,56.60
2019-06-08T10:47:40.990Z,56.27
2019-06-08T10:50:15.156Z,54.52
2019-06-08T10:52:41.052Z,52.72
2019-06-08T10:55:12.234Z,50.61
2019-06-08T10:57:41.154Z,48.48
2019-06-08T11:00:20.145Z,46.81
2019-06-08T11:02:42.241Z,45.04
2019-06-08T11:05:13.903Z,43.78
2019-06-08T11:07:41.482Z,42.91
2019-06-08T11:10:12.405Z,41.85
2019-06-08T11:12:40.996Z,40.56
2019-06-08T11:15:11.754Z,39.71
2019-06-08T11:17:40.377Z,39.22
2019-06-08T11:20:13.076Z,38.26
2019-06-08T11:23:00.770Z,37.84
2019-06-08T11:25:29.007Z,37.38
2019-06-08T11:27:58.682Z,36.84
2019-06-08T11:30:30.559Z,36.62
2019-06-08T11:32:59.759Z,36.27
2019-06-08T11:35:28.703Z,36.04
2019-06-08T11:37:58.489Z,35.73
2019-06-08T11:40:28.008Z,35.53
2019-06-08T11:42:58.622Z,35.13
2019-06-08T11:45:27.231Z,35.00
2019-06-08T11:47:58.193Z,34.74
2019-06-08T11:50:41.577Z,34.50
2019-06-08T11:53:12.650Z,34.48
2019-06-08T11:55:39.093Z,34.23
2019-06-08T11:58:11.861Z,34.26
2019-06-08T12:00:48.881Z,34.15
2019-06-08T12:03:17.642Z,34.02
2019-06-08T12:05:47.771Z,33.88
2019-06-08T12:08:17.696Z,33.77
2019-06-08T12:10:49.090Z,33.65
2019-06-08T12:13:17.979Z,33.54
2019-06-08T12:15:48.797Z,33.52
2019-06-08T12:18:18.131Z,33.52
2019-06-08T12:20:48.821Z,33.50
2019-06-08T12:23:17.609Z,33.51
2019-06-08T12:25:46.276Z,33.43
2019-06-08T12:28:14.940Z,33.38
2019-06-08T12:30:43.720Z,33.35
2019-06-08T12:33:13.832Z,33.38
2019-06-08T12:35:42.529Z,33.39
2019-06-08T12:38:12.686Z,33.34
2019-06-08T12:40:41.780Z,33.33
2019-06-08T12:43:12.858Z,33.35
2019-06-08T12:45:41.013Z,33.30
2019-06-08T12:48:15.304Z,33.22
2019-06-08T12:50:40.055Z,33.14
2019-06-08T12:53:13.444Z,33.02
2019-06-08T12:55:39.147Z,32.89
2019-06-08T12:58:09.646Z,32.82
2019-06-08T13:00:38.216Z,32.78
2019-06-08T13:03:08.599Z,32.68
2019-06-08T13:05:37.977Z,32.65
2019-06-08T13:08:09.746Z,32.64
2019-06-08T13:10:38.150Z,32.60
2019-06-08T13:13:08.460Z,32.58
2019-06-08T13:15:38.439Z,32.58
2019-06-08T13:18:08.939Z,32.53
2019-06-08T13:20:38.872Z,32.46
2019-06-08T13:23:08.700Z,32.45
2019-06-08T13:25:43.472Z,32.43
2019-06-08T13:28:13.056Z,32.50
2019-06-08T13:30:39.119Z,32.53
2019-06-08T13:33:08.246Z,32.51
2019-06-08T13:35:39.566Z,32.49
2019-06-08T13:38:08.776Z,32.48
2019-06-08T13:40:40.181Z,32.39
2019-06-08T13:43:08.311Z,32.33
2019-06-08T13:45:39.379Z,32.33
2019-06-08T13:48:08.942Z,32.33
2019-06-08T13:50:37.910Z,32.26
2019-06-08T13:53:10.639Z,32.22
2019-06-08T13:55:49.535Z,32.17
2019-06-08T13:58:07.344Z,32.09
2019-06-08T14:00:38.561Z,32.01
2019-06-08T14:03:08.653Z,31.94
2019-06-08T14:05:38.813Z,31.85
2019-06-08T14:08:10.655Z,31.86
2019-06-08T14:10:39.966Z,31.81
2019-06-08T14:13:08.841Z,31.79
2019-06-08T14:15:38.025Z,31.75
2019-06-08T14:18:08.734Z,31.68
2019-06-08T14:20:38.538Z,31.69
2019-06-08T14:23:09.150Z,31.66
2019-06-08T14:25:47.889Z,31.63
2019-06-08T14:28:08.388Z,31.56
2019-06-08T14:30:37.684Z,31.49
2019-06-08T14:33:08.260Z,31.28
2019-06-08T14:35:36.989Z,31.25
2019-06-08T14:38:05.656Z,31.26
2019-06-08T14:40:34.440Z,31.17
2019-06-08T14:43:03.090Z,31.09
2019-06-08T14:45:31.755Z,30.97
2019-06-08T14:48:00.420Z,30.97
2019-06-08T14:50:31.012Z,30.99
2019-06-08T14:52:59.470Z,30.97
2019-06-08T14:55:32.102Z,30.97
2019-06-08T14:57:58.549Z,30.91
2019-06-08T15:00:27.780Z,30.88
2019-06-08T15:02:58.969Z,30.82
2019-06-08T15:05:30.718Z,30.80
2019-06-08T15:08:00.448Z,30.80
2019-06-08T15:10:29.741Z,30.86
2019-06-08T15:12:58.888Z,30.99
2019-06-08T15:15:30.426Z,31.07
2019-06-08T15:17:58.436Z,31.17
2019-06-08T15:20:28.619Z,31.24
2019-06-08T15:22:57.871Z,31.26
2019-06-08T15:25:29.502Z,31.24
2019-06-08T15:27:59.755Z,31.24
2019-06-08T15:30:30.628Z,31.18
2019-06-08T15:32:58.664Z,31.12
2019-06-08T15:35:27.578Z,31.08
2019-06-08T15:37:58.462Z,31.01
2019-06-08T15:40:27.725Z,30.98
2019-06-08T15:42:58.582Z,30.92
2019-06-08T15:45:29.423Z,30.85
2019-06-08T15:47:58.714Z,30.74
2019-06-08T15:50:28.460Z,30.70
2019-06-08T15:52:59.832Z,30.69
2019-06-08T15:55:31.400Z,30.67
2019-06-08T15:57:58.668Z,30.64
2019-06-08T16:00:29.585Z,30.63
2019-06-08T16:02:58.184Z,30.57
2019-06-08T16:05:27.755Z,30.53
2019-06-08T16:07:56.735Z,30.49
2019-06-08T16:10:26.326Z,30.46
2019-06-08T16:12:55.083Z,30.45
2019-06-08T16:15:24.881Z,30.43
2019-06-08T16:17:53.662Z,30.39
2019-06-08T16:20:22.368Z,30.41
2019-06-08T16:22:50.990Z,30.42
2019-06-08T16:25:19.685Z,30.32
2019-06-08T16:27:48.338Z,30.34
2019-06-08T16:30:17.141Z,30.35
2019-06-08T16:32:45.817Z,30.38
2019-06-08T16:35:14.545Z,30.33
2019-06-08T16:37:43.151Z,30.24
2019-06-08T16:40:12.205Z,30.24
2019-06-08T16:42:40.869Z,30.27
2019-06-08T16:45:10.212Z,30.19
2019-06-08T16:47:40.360Z,30.05
2019-06-08T16:50:23.432Z,29.97
2019-06-08T16:52:39.769Z,29.87
2019-06-08T16:55:08.736Z,29.65
2019-06-08T16:57:39.330Z,29.54
2019-06-08T17:02:39.372Z,29.29
2019-06-08T17:05:08.772Z,29.19
2019-06-08T17:07:37.809Z,29.08
2019-06-08T17:10:07.238Z,29.16
2019-06-08T17:12:37.004Z,29.11
2019-06-08T17:15:07.633Z,29.06
2019-06-08T17:17:36.620Z,28.93
2019-06-08T17:20:06.780Z,28.80
2019-06-08T17:22:36.824Z,28.70
2019-06-08T17:25:08.436Z,28.61
2019-06-08T17:27:37.290Z,28.48
2019-06-08T17:30:08.693Z,28.36
2019-06-08T17:32:38.483Z,28.27
2019-06-08T17:35:07.977Z,28.13
2019-06-08T17:37:38.025Z,28.02
2019-06-08T17:40:07.218Z,27.93
2019-06-08T17:42:35.873Z,27.84
2019-06-08T17:45:07.728Z,27.71
2019-06-08T17:49:08.927Z,27.70
2019-06-08T17:51:39.414Z,27.51
2019-06-08T17:54:09.923Z,27.41
2019-06-08T17:56:41.226Z,27.29
2019-06-08T17:59:11.932Z,27.24
2019-06-08T18:01:43.566Z,27.14
2019-06-08T18:04:14.018Z,27.03
2019-06-08T18:06:44.658Z,26.96
2019-06-08T18:09:17.349Z,26.91
2019-06-08T18:11:48.037Z,26.82
2019-06-08T18:14:18.787Z,26.76
2019-06-08T18:16:49.183Z,26.71
2019-06-08T18:19:28.528Z,26.64
2019-06-08T18:22:04.280Z,26.58
2019-06-08T18:24:31.254Z,26.51
2019-06-08T18:27:01.625Z,26.43
2019-06-08T18:29:32.197Z,26.37
2019-06-08T18:32:02.567Z,26.30
2019-06-08T18:34:32.926Z,26.26
2019-06-08T18:37:03.281Z,26.22
2019-06-08T18:39:35.013Z,26.16
2019-06-08T18:42:08.067Z,26.10
2019-06-08T18:44:41.011Z,26.09
2019-06-08T18:47:11.215Z,26.02
2019-06-08T18:49:43.081Z,25.94
2019-06-08T18:52:13.816Z,25.93
2019-06-08T18:54:44.293Z,25.87
2019-06-08T18:57:14.606Z,25.89
2019-06-08T18:59:48.656Z,25.85
2019-06-08T19:02:18.012Z,25.79
2019-06-08T19:04:50.393Z,25.79
2019-06-08T19:07:20.794Z,25.76
2019-06-08T19:09:51.812Z,25.71
2019-06-08T19:12:22.297Z,25.72
2019-06-08T19:14:52.733Z,25.66
2019-06-08T19:17:23.103Z,25.65
2019-06-08T19:19:53.470Z,25.61
2019-06-08T19:22:23.846Z,25.57
2019-06-08T19:24:54.309Z,25.55
2019-06-08T19:27:24.705Z,25.57
2019-06-08T19:29:55.013Z,25.52
2019-06-08T19:32:27.890Z,25.50
2019-06-08T19:34:58.067Z,25.46
2019-06-08T19:37:32.058Z,25.42
2019-06-08T19:40:00.733Z,25.40
2019-06-08T19:42:39.966Z,25.35
2019-06-08T19:45:05.600Z,25.34
2019-06-08T19:47:35.690Z,25.29
2019-06-08T19:50:07.900Z,25.23
2019-06-08T19:52:42.094Z,25.21
2019-06-08T19:55:10.643Z,25.19
2019-06-08T19:57:41.361Z,25.17
2019-06-08T20:00:13.558Z,25.19
2019-06-08T20:02:44.640Z,25.13
2019-06-08T20:05:17.451Z,25.10
2019-06-08T20:07:49.122Z,25.11
2019-06-08T20:10:19.618Z,25.11
2019-06-08T20:12:50.944Z,25.09
2019-06-08T20:15:21.401Z,25.10
2019-06-08T20:17:52.033Z,25.08
2019-06-08T20:20:22.424Z,25.03
2019-06-08T20:22:53.621Z,25.02
2019-06-08T20:25:24.224Z,25.01
2019-06-08T20:27:54.583Z,25.00
2019-06-08T20:30:24.962Z,24.98
2019-06-08T20:32:57.434Z,25.00
2019-06-08T20:35:28.005Z,24.95
2019-06-08T20:37:58.588Z,24.91
2019-06-08T20:40:29.125Z,24.96
2019-06-08T20:42:59.488Z,24.90
2019-06-08T20:45:30.096Z,24.89
2019-06-08T20:48:00.455Z,24.86
2019-06-08T20:50:30.891Z,24.87
2019-06-08T20:53:01.304Z,24.85
2019-06-08T20:55:31.677Z,24.82
2019-06-08T20:58:02.051Z,24.81
2019-06-08T21:00:32.405Z,24.76
2019-06-08T21:03:03.272Z,24.75
2019-06-08T21:05:33.786Z,24.72
2019-06-08T21:08:04.522Z,24.71
2019-06-08T21:10:37.603Z,24.68
2019-06-08T21:13:07.348Z,24.64
2019-06-08T21:15:38.401Z,24.62
2019-06-08T21:18:09.053Z,24.59
2019-06-08T21:20:39.348Z,24.53
2019-06-08T21:23:09.733Z,24.49
2019-06-08T21:25:40.098Z,24.48
2019-06-08T21:28:10.410Z,24.45
2019-06-08T21:30:40.792Z,24.42
2019-06-08T21:33:11.162Z,24.37
2019-06-08T21:35:41.495Z,24.35
2019-06-08T21:38:23.280Z,24.33
2019-06-08T21:40:43.959Z,24.28
2019-06-08T21:43:14.314Z,24.27
2019-06-08T21:45:44.838Z,24.20
2019-06-08T21:48:15.200Z,24.20
2019-06-08T21:50:49.004Z,24.16
2019-06-08T21:53:18.149Z,24.12
2019-06-08T21:55:49.569Z,24.13
2019-06-08T21:58:20.952Z,24.09
2019-06-08T22:00:52.672Z,24.02
2019-06-08T22:03:23.052Z,23.97
2019-06-08T22:05:53.901Z,23.95
2019-06-08T22:08:24.413Z,23.88
2019-06-08T22:10:54.789Z,23.88
2019-06-08T22:13:25.247Z,23.83
2019-06-08T22:15:58.271Z,23.86
2019-06-08T22:18:27.845Z,23.75
2019-06-08T22:20:59.792Z,23.72
2019-06-08T22:23:30.504Z,23.69
2019-06-08T22:26:01.265Z,23.70
2019-06-08T22:28:31.584Z,23.67
2019-06-08T22:31:01.949Z,23.63
2019-06-08T22:33:32.494Z,23.62
2019-06-08T22:36:02.931Z,23.58
2019-06-08T22:38:33.382Z,23.54
2019-06-08T22:41:03.750Z,23.51
2019-06-08T22:43:34.237Z,23.49
2019-06-08T22:46:04.598Z,23.48
2019-06-08T22:48:35.039Z,23.44
2019-06-08T22:51:07.823Z,23.38
2019-06-08T22:53:38.430Z,23.36
2019-06-08T22:56:08.930Z,23.36
2019-06-08T22:58:39.354Z,23.31
2019-06-08T23:01:11.546Z,23.30
2019-06-08T23:03:41.864Z,23.25
2019-06-08T23:06:12.248Z,23.21
2019-06-08T23:08:42.647Z,23.19
2019-06-08T23:11:13.024Z,23.17
2019-06-08T23:13:43.380Z,23.15
2019-06-08T23:16:13.761Z,23.18
2019-06-08T23:18:44.163Z,23.13
2019-06-08T23:21:14.542Z,23.12
2019-06-08T23:23:44.896Z,23.08
2019-06-08T23:26:15.279Z,23.06
2019-06-08T23:28:47.141Z,23.04
2019-06-08T23:31:24.855Z,23.05
2019-06-08T23:33:49.763Z,23.00
2019-06-08T23:36:46.015Z,23.02
2019-06-08T23:38:52.084Z,23.00
2019-06-08T23:41:22.497Z,22.97
2019-06-08T23:43:52.862Z,22.96
2019-06-08T23:46:23.278Z,22.92
2019-06-08T23:48:53.640Z,22.88
2019-06-08T23:51:24.050Z,22.88
2019-06-08T23:53:59.619Z,22.88
2019-06-08T23:56:29.696Z,22.84
2019-06-08T23:59:01.314Z,22.83
